Time;durP1;ratioP1;P1;durP2;ratioP2;P2;SDS_P1;SDS_P2;PMS_P1;PMS_P2;Temp;Humidity;BMP_temperature;BMP_pressure;BME280_temperature;BME280_humidity;BME280_pressure;Samples;Min_cycle;Max_cycle;Signal;HPM_P1;HPM_P2
2020/12/19 00:00:15;;;;;;;32.55;16.87;;;;;;;1.58;83.85;101637.48;1756814;80;21808;-70
2020/12/19 00:02:43;;;;;;;37.48;19.32;;;;;;;1.54;83.97;101636.66;1764647;80;21220;-70
2020/12/19 00:05:11;;;;;;;36.03;18.12;;;;;;;1.53;84.07;101637.66;1756203;81;21180;-69
2020/12/19 00:07:39;;;;;;;36.10;18.48;;;;;;;1.56;84.16;101637.32;1763997;79;21823;-70
2020/12/19 00:10:07;;;;;;;33.60;16.95;;;;;;;1.57;84.21;101637.13;1748666;81;21522;-70
2020/12/19 00:12:35;;;;;;;38.95;19.48;;;;;;;1.54;84.27;101639.29;1748996;80;21204;-70
2020/12/19 00:15:03;;;;;;;39.50;19.82;;;;;;;1.50;84.36;101641.95;1745476;81;21897;-69
2020/12/19 00:17:31;;;;;;;38.15;18.82;;;;;;;1.48;84.48;101638.66;1747245;81;21213;-69
2020/12/19 00:19:59;;;;;;;38.65;20.50;;;;;;;1.47;84.53;101637.84;1770980;80;21659;-68
2020/12/19 00:22:26;;;;;;;33.30;17.87;;;;;;;1.44;84.61;101639.48;1776582;79;21168;-69
2020/12/19 00:24:54;;;;;;;41.15;21.42;;;;;;;1.46;84.80;101640.66;1749929;81;21667;-69
2020/12/19 00:27:22;;;;;;;36.30;18.20;;;;;;;1.47;84.83;101635.70;1770180;79;22208;-69
2020/12/19 00:29:50;;;;;;;41.02;21.82;;;;;;;1.48;84.91;101633.38;1749487;81;21656;-68
2020/12/19 00:32:18;;;;;;;38.38;20.48;;;;;;;1.48;84.92;101636.02;1771126;79;21700;-69
2020/12/19 00:34:47;;;;;;;34.43;18.85;;;;;;;1.52;85.01;101636.03;1775243;80;21187;-69
2020/12/19 00:37:15;;;;;;;41.75;21.80;;;;;;;1.51;85.04;101639.63;1759516;80;21335;-69
2020/12/19 00:39:42;;;;;;;35.50;19.82;;;;;;;1.49;85.10;101638.50;1771562;80;21172;-70
2020/12/19 00:42:10;;;;;;;35.65;20.23;;;;;;;1.50;85.12;101641.45;1759381;80;21191;-69
2020/12/19 00:44:40;;;;;;;37.28;20.02;;;;;;;1.52;85.16;101642.61;1766368;80;21156;-69
2020/12/19 00:47:07;;;;;;;37.45;20.40;;;;;;;1.50;85.20;101641.45;1754891;81;21079;-68
2020/12/19 00:49:35;;;;;;;35.23;18.00;;;;;;;1.50;85.22;101644.58;1762397;81;22357;-68
2020/12/19 00:52:03;;;;;;;39.53;20.72;;;;;;;1.50;85.24;101649.34;1759433;79;21564;-69
2020/12/19 00:54:31;;;;;;;34.88;19.20;;;;;;;1.46;85.30;101647.23;1760040;81;21127;-68
2020/12/19 00:56:59;;;;;;;38.25;20.70;;;;;;;1.46;85.40;101645.42;1761795;80;21160;-70
2020/12/19 00:59:28;;;;;;;38.45;20.88;;;;;;;1.49;85.45;101642.95;1755746;80;21199;-70
2020/12/19 01:01:55;;;;;;;36.60;19.73;;;;;;;1.44;85.46;101641.30;1760209;81;22236;-70
2020/12/19 01:04:23;;;;;;;34.33;18.35;;;;;;;1.40;85.52;101645.59;1758274;80;21658;-69
2020/12/19 01:06:51;;;;;;;43.33;22.45;;;;;;;1.41;85.62;101643.78;1761169;80;21240;-69
2020/12/19 01:09:18;;;;;;;43.05;22.37;;;;;;;1.40;85.67;101640.83;1760533;80;21226;-69
2020/12/19 01:11:46;;;;;;;36.08;18.87;;;;;;;1.42;85.78;101630.14;1745214;82;21650;-70
2020/12/19 01:14:14;;;;;;;38.13;21.45;;;;;;;1.48;85.85;101632.07;1742624;80;22371;-68
2020/12/19 01:16:42;;;;;;;38.30;20.27;;;;;;;1.50;85.83;101632.73;1747465;81;21212;-70
2020/12/19 01:19:09;;;;;;;38.88;19.30;;;;;;;1.51;85.87;101635.68;1747257;81;21184;-70
2020/12/19 01:21:37;;;;;;;43.00;21.48;;;;;;;1.49;85.91;101633.73;1770891;79;21191;-69
2020/12/19 01:24:04;;;;;;;40.65;20.95;;;;;;;1.45;85.96;101633.25;1749635;80;22633;-68
2020/12/19 01:26:32;;;;;;;42.20;22.05;;;;;;;1.44;86.05;101631.59;1753798;80;22288;-71
2020/12/19 01:29:00;;;;;;;37.25;20.52;;;;;;;1.45;86.10;101633.25;1755301;80;21243;-70
2020/12/19 01:31:28;;;;;;;34.33;16.55;;;;;;;1.46;86.16;101628.80;1754050;80;21227;-70
2020/12/19 01:33:56;;;;;;;39.48;19.85;;;;;;;1.46;86.23;101632.25;1759812;81;21180;-70
2020/12/19 01:36:24;;;;;;;38.23;20.20;;;;;;;1.46;86.26;101635.39;1760450;81;21191;-71
2020/12/19 01:38:52;;;;;;;35.73;18.25;;;;;;;1.45;86.29;101640.30;1761009;81;21248;-70
2020/12/19 01:41:21;;;;;;;39.18;19.90;;;;;;;1.40;86.38;101641.64;1762854;80;21218;-70
2020/12/19 01:43:55;;;;;;;40.73;21.93;;;;;;;1.40;86.44;101649.55;1758870;80;21199;-69
2020/12/19 01:46:47;;;;;;;38.65;20.45;;;;;;;1.40;86.49;101644.78;1757552;81;21175;-68
2020/12/19 01:49:15;;;;;;;46.13;22.37;;;;;;;1.43;86.55;101650.20;1760558;80;22613;-69
2020/12/19 01:51:43;;;;;;;37.00;19.30;;;;;;;1.43;86.58;101649.70;1756909;80;21223;-69
2020/12/19 01:54:11;;;;;;;33.40;16.87;;;;;;;1.43;86.65;101645.76;1759674;81;21610;-69
2020/12/19 01:56:53;;;;;;;39.58;21.02;;;;;;;1.44;86.66;101644.75;1761257;80;21179;-70
2020/12/19 01:59:23;;;;;;;39.53;20.60;;;;;;;1.46;86.67;101649.87;1750199;80;21591;-69
2020/12/19 02:01:54;;;;;;;37.55;19.55;;;;;;;1.46;86.68;101644.10;1773990;79;21211;-69
2020/12/19 02:04:24;;;;;;;;;;;;;;;1.40;86.69;101644.28;1752973;80;21367;-70
2020/12/19 02:06:54;;;;;;;35.28;18.05;;;;;;;1.38;86.73;101642.80;1744768;81;20319;-73
2020/12/19 02:09:28;;;;;;;40.38;21.17;;;;;;;1.36;86.80;101647.43;1748415;81;21192;-72
2020/12/19 02:11:56;;;;;;;38.50;20.00;;;;;;;1.33;86.83;101647.77;1737688;80;21037;-70
2020/12/19 02:14:24;;;;;;;36.42;19.45;;;;;;;1.35;86.88;101644.45;1767321;80;21160;-72
2020/12/19 02:17:06;;;;;;;35.80;18.55;;;;;;;1.36;86.93;101649.56;1770239;79;21559;-71
2020/12/19 02:19:34;;;;;;;44.33;23.35;;;;;;;1.38;86.98;101652.86;1739782;80;21180;-69
2020/12/19 02:22:03;;;;;;;44.48;24.37;;;;;;;1.42;87.03;101653.34;1734769;81;21160;-69
2020/12/19 02:24:30;;;;;;;40.38;22.07;;;;;;;1.47;87.04;101640.47;1770008;80;21658;-70
2020/12/19 02:26:59;;;;;;;41.77;21.30;;;;;;;1.58;87.03;101645.85;1777453;79;21152;-69
2020/12/19 02:29:29;;;;;;;47.10;24.27;;;;;;;1.67;87.04;101640.06;1774486;79;21459;-70
2020/12/19 02:31:58;;;;;;;41.50;21.68;;;;;;;1.68;86.93;101640.37;1778109;80;21215;-70
2020/12/19 02:34:26;;;;;;;43.65;23.02;;;;;;;1.64;86.83;101639.41;1757688;80;21139;-69
2020/12/19 02:36:55;;;;;;;42.93;23.67;;;;;;;1.62;86.79;101637.45;1744904;80;21241;-71
2020/12/19 02:39:23;;;;;;;36.90;20.25;;;;;;;1.58;86.76;101636.16;1751827;80;22139;-72
2020/12/19 02:41:51;;;;;;;39.90;21.35;;;;;;;1.54;86.76;101636.66;1751088;80;21226;-71
2020/12/19 02:44:20;;;;;;;44.55;22.48;;;;;;;1.52;86.83;101640.80;1738321;81;21228;-72
2020/12/19 02:46:47;;;;;;;39.00;20.95;;;;;;;1.56;86.85;101639.45;1749686;80;21187;-72
2020/12/19 02:49:15;;;;;;;36.70;20.08;;;;;;;1.62;86.83;101644.04;1759693;80;21233;-72
2020/12/19 02:51:44;;;;;;;41.55;21.37;;;;;;;1.64;86.85;101648.62;1761493;80;21146;-71
2020/12/19 02:54:11;;;;;;;40.17;21.40;;;;;;;1.69;86.81;101649.44;1761091;79;21210;-71
2020/12/19 02:56:40;;;;;;;41.70;21.35;;;;;;;1.75;86.80;101647.95;1771611;80;21659;-71
2020/12/19 02:59:07;;;;;;;41.18;20.45;;;;;;;1.79;86.75;101650.55;1755455;80;21120;-70
2020/12/19 03:01:35;;;;;;;39.57;20.80;;;;;;;1.84;86.69;101654.80;1480062;80;10000953;-69
2020/12/19 03:04:03;;;;;;;39.13;20.85;;;;;;;1.83;86.59;101652.66;1721178;81;21223;-69
2020/12/19 03:06:33;;;;;;;41.30;21.93;;;;;;;1.82;86.55;101647.08;1725181;81;21141;-69
2020/12/19 03:09:04;;;;;;;39.95;21.12;;;;;;;1.83;86.50;101650.52;1722994;82;21240;-70
2020/12/19 03:11:39;;;;;;;38.30;20.73;;;;;;;1.84;86.40;101654.32;1759662;79;22194;-69
2020/12/19 03:14:07;;;;;;;35.90;20.08;;;;;;;1.75;86.36;101645.31;1726053;81;21174;-70
2020/12/19 03:16:35;;;;;;;38.00;18.60;;;;;;;1.76;86.38;101645.12;1740344;81;21293;-69
2020/12/19 03:19:02;;;;;;;44.25;22.15;;;;;;;1.75;86.36;101647.95;1742881;80;21638;-71
2020/12/19 03:21:30;;;;;;;37.05;20.45;;;;;;;1.75;86.36;101640.05;1742291;81;21210;-69
2020/12/19 03:23:58;;;;;;;36.77;20.08;;;;;;;1.75;86.35;101642.67;1758615;79;21183;-70
2020/12/19 03:26:25;;;;;;;40.43;20.68;;;;;;;1.76;86.28;101648.27;1752703;79;21191;-69
2020/12/19 03:28:53;;;;;;;39.88;19.87;;;;;;;1.76;86.29;101639.86;1745731;81;22053;-69
2020/12/19 03:31:22;;;;;;;33.30;17.57;;;;;;;1.73;86.23;101640.20;1755765;81;21698;-70
2020/12/19 03:33:49;;;;;;;39.63;20.92;;;;;;;1.69;86.23;101642.86;1748105;79;21189;-70
2020/12/19 03:36:17;;;;;;;37.78;20.85;;;;;;;1.67;86.21;101642.70;1741311;81;21179;-71
2020/12/19 03:38:45;;;;;;;39.83;21.62;;;;;;;1.69;86.28;101642.05;1740725;81;21199;-70
2020/12/19 03:41:13;;;;;;;39.92;21.57;;;;;;;1.74;86.32;101641.83;1778292;80;21220;-70
2020/12/19 03:43:40;;;;;;;36.73;19.37;;;;;;;1.80;86.36;101636.38;1768618;79;21706;-71
2020/12/19 03:46:10;;;;;;;37.10;19.17;;;;;;;1.86;86.30;101640.96;1767384;79;21191;-70
2020/12/19 03:48:39;;;;;;;36.05;19.35;;;;;;;1.86;86.23;101641.78;1747976;80;21606;-71
2020/12/19 03:51:06;;;;;;;35.92;18.15;;;;;;;1.89;86.18;101637.98;1777186;80;21194;-70
2020/12/19 03:53:34;;;;;;;36.55;19.48;;;;;;;1.90;86.15;101634.34;1764451;80;21834;-70
2020/12/19 03:56:02;;;;;;;38.02;19.60;;;;;;;1.94;86.12;101638.77;1771565;80;21194;-70
2020/12/19 03:58:30;;;;;;;36.58;19.87;;;;;;;1.95;86.09;101648.34;1760264;80;21179;-70
2020/12/19 04:00:58;;;;;;;35.25;18.90;;;;;;;1.93;85.99;101646.36;1776968;80;21178;-70
2020/12/19 04:03:25;;;;;;;32.55;17.77;;;;;;;1.93;85.91;101641.09;1778891;80;21488;-71
2020/12/19 04:05:53;;;;;;;38.90;19.62;;;;;;;1.95;85.92;101646.52;1779190;80;21365;-69
2020/12/19 04:08:21;;;;;;;37.73;19.87;;;;;;;1.94;85.84;101648.84;1768261;79;21210;-70
2020/12/19 04:10:49;;;;;;;41.10;20.27;;;;;;;1.90;85.78;101648.84;1747717;82;21779;-70
2020/12/19 04:13:18;;;;;;;37.15;21.05;;;;;;;1.87;85.80;101648.67;1723750;82;21194;-70
2020/12/19 04:15:46;;;;;;;33.42;18.90;;;;;;;1.88;85.74;101652.16;1723535;82;21203;-70
2020/12/19 04:18:13;;;;;;;37.75;20.72;;;;;;;1.92;85.77;101644.73;1724643;81;21463;-70
2020/12/19 04:20:41;;;;;;;37.35;20.97;;;;;;;1.92;85.74;101654.77;1733275;82;21195;-69
2020/12/19 04:23:09;;;;;;;36.77;19.35;;;;;;;1.94;85.76;101643.56;1741349;81;22339;-70
2020/12/19 04:25:36;;;;;;;36.53;19.10;;;;;;;1.94;85.70;101656.74;1735675;81;21737;-69
2020/12/19 04:28:04;;;;;;;33.42;18.30;;;;;;;1.92;85.63;101657.40;1736755;82;21215;-69
2020/12/19 04:30:32;;;;;;;38.75;21.82;;;;;;;1.92;85.67;101652.12;1729276;81;21369;-70
2020/12/19 04:32:59;;;;;;;37.20;21.45;;;;;;;1.94;85.68;101654.11;1727639;82;21135;-71
2020/12/19 04:35:27;;;;;;;37.65;21.50;;;;;;;2.00;85.71;101648.62;1736920;81;21128;-70
2020/12/19 04:37:54;;;;;;;36.15;20.10;;;;;;;2.03;85.61;101645.64;1724603;82;21109;-70
2020/12/19 04:40:22;;;;;;;32.88;18.17;;;;;;;2.04;85.54;101650.75;1721441;81;21140;-70
2020/12/19 04:42:49;;;;;;;39.48;21.17;;;;;;;2.03;85.42;101648.28;1737632;82;21379;-70
2020/12/19 04:45:18;;;;;;;38.60;21.27;;;;;;;1.99;85.43;101646.98;1733519;82;21740;-69
2020/12/19 04:47:45;;;;;;;38.50;21.70;;;;;;;2.03;85.51;101649.09;1720355;82;21656;-69
2020/12/19 04:50:13;;;;;;;37.55;21.07;;;;;;;2.01;85.39;101647.14;1723792;82;21251;-70
2020/12/19 04:52:41;;;;;;;35.68;20.35;;;;;;;2.02;85.40;101647.45;1684570;82;21183;-70
2020/12/19 04:55:09;;;;;;;36.58;19.52;;;;;;;2.04;85.36;101648.13;1722870;81;21316;-71
2020/12/19 04:57:36;;;;;;;35.40;20.25;;;;;;;2.01;85.31;101648.97;1734846;82;22119;-70
2020/12/19 05:00:06;;;;;;;32.05;18.48;;;;;;;1.95;85.31;101653.61;1725225;82;21165;-70
2020/12/19 05:02:34;;;;;;;34.75;19.70;;;;;;;1.94;85.35;101664.65;1736484;82;21186;-70
2020/12/19 05:05:05;;;;;;;34.03;18.85;;;;;;;1.92;85.33;101665.30;1716975;82;21187;-69
2020/12/19 05:07:35;;;;;;;33.10;18.42;;;;;;;1.94;85.32;101665.97;1732522;82;21642;-69
2020/12/19 05:10:03;;;;;;;38.30;20.02;;;;;;;1.95;85.39;101665.47;1733364;82;21225;-70
2020/12/19 05:12:31;;;;;;;33.65;20.37;;;;;;;1.95;85.36;101659.69;1722755;81;21422;-70
2020/12/19 05:14:58;;;;;;;32.88;18.10;;;;;;;1.94;85.34;101659.84;1665077;82;21661;-70
2020/12/19 05:17:26;;;;;;;28.60;17.15;;;;;;;1.92;85.36;101663.98;1725510;82;21183;-70
2020/12/19 05:19:55;;;;;;;30.75;17.75;;;;;;;1.94;85.41;101658.53;1719638;82;22138;-70
2020/12/19 05:22:25;;;;;;;31.97;17.80;;;;;;;1.95;85.42;101657.06;1683933;82;21661;-71
2020/12/19 05:24:53;;;;;;;35.65;19.98;;;;;;;1.98;85.43;101656.72;1732786;82;21131;-70
2020/12/19 05:27:21;;;;;;;27.73;16.07;;;;;;;1.99;85.43;101656.21;1710181;82;21120;-71
2020/12/19 05:29:48;;;;;;;32.25;18.02;;;;;;;1.99;85.38;101658.34;1727331;80;21075;-69
2020/12/19 05:32:16;;;;;;;27.98;15.80;;;;;;;1.94;85.34;101663.80;1723735;80;21419;-69
2020/12/19 05:34:46;;;;;;;33.83;17.67;;;;;;;1.91;85.39;101665.46;1694881;80;21130;-70
2020/12/19 05:37:15;;;;;;;29.82;16.73;;;;;;;1.86;85.42;101659.41;1739940;80;21127;-70
2020/12/19 05:42:29;;;;;;;32.17;19.33;;;;;;;1.81;85.59;101666.98;1735359;79;27976;-69
2020/12/19 05:44:57;;;;;;;32.10;17.75;;;;;;;1.84;85.63;101671.91;1734904;81;21164;-69
2020/12/19 05:47:24;;;;;;;29.65;17.02;;;;;;;1.88;85.61;101680.64;1742519;80;21630;-69
2020/12/19 05:49:52;;;;;;;32.38;18.57;;;;;;;1.88;85.65;101679.32;1729537;81;21236;-70
2020/12/19 05:52:20;;;;;;;28.40;16.35;;;;;;;1.90;85.69;101680.45;1788038;80;21165;-70
2020/12/19 05:54:48;;;;;;;29.25;16.50;;;;;;;1.92;85.69;101679.80;1794132;77;21626;-70
2020/12/19 05:57:16;;;;;;;28.38;17.15;;;;;;;1.92;85.72;101676.34;1802154;78;22183;-70
2020/12/19 05:59:45;;;;;;;30.50;17.52;;;;;;;1.88;85.74;101678.50;1790223;77;22253;-71
2020/12/19 06:02:14;;;;;;;30.35;16.90;;;;;;;1.84;85.77;101677.19;1810588;77;21187;-71
2020/12/19 06:04:42;;;;;;;31.85;17.82;;;;;;;1.83;85.80;101681.63;1765119;78;21183;-71
2020/12/19 06:07:10;;;;;;;32.30;17.82;;;;;;;1.82;85.75;101686.59;1777453;80;21167;-70
2020/12/19 06:09:41;;;;;;;33.18;18.98;;;;;;;1.80;85.76;101682.48;1791087;78;21199;-71
2020/12/19 06:12:15;;;;;;;34.60;19.92;;;;;;;1.79;85.83;101687.43;1774051;78;22255;-70
2020/12/19 06:14:47;;;;;;;31.57;15.40;;;;;;;1.82;85.83;101692.36;1788427;78;21194;-71
2020/12/19 06:17:50;;;;;;;32.60;17.82;;;;;;;1.81;85.82;101705.18;1801536;77;21702;-71
2020/12/19 06:20:18;;;;;;;34.70;18.37;;;;;;;1.78;85.78;101712.95;1801548;77;21598;-69
2020/12/19 06:22:46;;;;;;;35.95;20.20;;;;;;;1.75;85.79;101715.11;1804742;78;21513;-70
2020/12/19 06:25:14;;;;;;;36.08;20.20;;;;;;;1.72;85.84;101718.08;1799233;78;21576;-70
2020/12/19 06:27:42;;;;;;;36.60;18.82;;;;;;;1.68;85.91;101718.92;1744339;78;21204;-70
2020/12/19 06:30:29;;;;;;;35.23;19.70;;;;;;;1.67;85.96;101718.58;1795599;78;21143;-70
2020/12/19 06:33:16;;;;;;;33.73;18.57;;;;;;;1.64;85.97;101723.67;1792339;78;21623;-70
2020/12/19 06:35:50;;;;;;;37.50;19.48;;;;;;;1.63;86.00;101725.99;1795446;77;21168;-70
2020/12/19 06:38:44;;;;;;;32.65;17.32;;;;;;;1.61;86.04;101726.67;1800660;77;21290;-70
2020/12/19 06:41:42;;;;;;;30.20;17.45;;;;;;;1.58;86.06;101732.28;1732180;80;21241;-71
2020/12/19 06:44:21;;;;;;;36.13;19.23;;;;;;;1.55;86.12;101733.93;1712441;81;21203;-70
2020/12/19 06:46:49;;;;;;;34.50;18.65;;;;;;;1.57;86.15;101732.43;1715406;81;21186;-69
2020/12/19 06:49:32;;;;;;;39.58;21.42;;;;;;;1.59;86.15;101740.50;1777115;78;21413;-70
2020/12/19 06:52:11;;;;;;;38.13;21.05;;;;;;;1.60;86.20;101742.63;1778618;80;22379;-70
2020/12/19 06:54:44;;;;;;;34.50;18.62;;;;;;;1.66;86.25;101749.05;1785743;80;22164;-70
2020/12/19 06:57:27;;;;;;;34.23;19.77;;;;;;;1.68;86.26;101750.99;1784665;80;21187;-69
2020/12/19 06:59:55;;;;;;;36.55;20.57;;;;;;;1.69;86.25;101744.76;1780563;80;21639;-70
2020/12/19 07:02:24;;;;;;;39.15;20.20;;;;;;;1.72;86.28;101746.55;1752145;80;22136;-71
2020/12/19 07:04:52;;;;;;;34.03;18.67;;;;;;;1.81;86.37;101747.33;1787983;80;21349;-70
2020/12/19 07:07:25;;;;;;;36.70;18.90;;;;;;;1.83;86.30;101748.81;1788122;80;21179;-71
2020/12/19 07:10:01;;;;;;;35.33;19.42;;;;;;;1.87;86.29;101750.61;1778706;78;22444;-69
2020/12/19 07:12:33;;;;;;;33.02;18.55;;;;;;;1.91;86.28;101752.41;1775612;78;21297;-70
2020/12/19 07:15:01;;;;;;;37.55;21.02;;;;;;;1.92;86.23;101756.20;1782552;80;21108;-70
2020/12/19 07:17:28;;;;;;;37.03;21.80;;;;;;;1.90;86.21;101751.59;1767309;78;21348;-70
2020/12/19 07:19:59;;;;;;;38.40;21.35;;;;;;;1.92;86.24;101750.93;1771927;78;21642;-70
2020/12/19 07:22:27;;;;;;;37.00;20.57;;;;;;;1.94;86.21;101752.91;1779491;80;21605;-70
2020/12/19 07:24:56;;;;;;;40.30;22.55;;;;;;;1.94;86.19;101756.86;1771064;80;21180;-71
2020/12/19 07:27:23;;;;;;;37.23;19.20;;;;;;;1.96;86.17;101752.73;1777092;78;21108;-71
2020/12/19 07:29:59;;;;;;;34.08;17.55;;;;;;;1.98;86.19;101756.84;1785596;80;21599;-70
2020/12/19 07:32:28;;;;;;;31.25;17.60;;;;;;;2.00;86.20;101757.97;1787401;80;21116;-70
2020/12/19 07:34:57;;;;;;;32.63;17.82;;;;;;;2.05;86.19;101756.98;1788527;80;21148;-71
2020/12/19 07:37:26;;;;;;;28.50;17.35;;;;;;;2.05;86.15;101756.48;1785562;78;21166;-71
2020/12/19 07:40:06;;;;;;;34.43;18.40;;;;;;;2.09;86.16;101757.77;1781173;80;21183;-72
2020/12/19 07:42:34;;;;;;;31.85;18.35;;;;;;;2.13;86.14;101758.25;1776507;80;21571;-71
2020/12/19 07:45:01;;;;;;;30.00;16.90;;;;;;;2.18;86.16;101757.25;1775446;80;21069;-71
2020/12/19 07:47:29;;;;;;;27.32;15.28;;;;;;;2.20;86.07;101749.16;1789828;80;21595;-71
2020/12/19 07:49:57;;;;;;;30.50;17.95;;;;;;;2.23;86.01;101746.99;1788668;78;21152;-73
2020/12/19 07:52:25;;;;;;;29.50;16.75;;;;;;;2.23;85.91;101755.41;1786753;80;21125;-71
2020/12/19 07:55:04;;;;;;;31.77;17.62;;;;;;;2.26;85.95;101754.56;1782656;80;22681;-72
2020/12/19 07:57:33;;;;;;;29.23;16.73;;;;;;;2.31;85.93;101756.20;1789739;80;21102;-73
2020/12/19 08:00:03;;;;;;;30.82;18.75;;;;;;;2.34;85.81;101753.22;1785266;78;21599;-70
2020/12/19 08:02:35;;;;;;;32.25;18.92;;;;;;;2.39;85.78;101755.82;1777858;78;21626;-70
2020/12/19 08:05:02;;;;;;;34.60;18.50;;;;;;;2.46;85.79;101764.17;1758621;80;21140;-69
2020/12/19 08:07:30;;;;;;;33.63;18.60;;;;;;;2.53;85.66;101765.14;1721648;82;21379;-71
2020/12/19 08:10:11;;;;;;;29.65;16.90;;;;;;;2.54;85.58;101761.50;1722656;81;21159;-71
2020/12/19 08:12:40;;;;;;;31.27;18.17;;;;;;;2.62;85.55;101763.77;1731244;81;21171;-70
2020/12/19 08:15:12;;;;;;;29.70;17.50;;;;;;;2.66;85.45;101764.55;1728647;81;21151;-72
2020/12/19 08:17:52;;;;;;;34.35;19.60;;;;;;;2.71;85.36;101767.49;1703302;82;21183;-71
2020/12/19 08:20:23;;;;;;;34.27;20.08;;;;;;;2.76;85.30;101770.91;1727805;81;21456;-71
2020/12/19 08:22:51;;;;;;;34.78;21.35;;;;;;;2.82;85.12;101769.72;1723989;81;21634;-70
2020/12/19 08:25:19;;;;;;;32.75;19.25;;;;;;;2.77;84.87;101760.70;1734339;82;21071;-71
2020/12/19 08:27:47;;;;;;;32.90;20.97;;;;;;;2.77;84.82;101763.34;1732905;82;21068;-71
2020/12/19 08:30:28;;;;;;;33.38;20.08;;;;;;;2.81;84.78;101764.63;1731695;81;21539;-71
2020/12/19 08:33:03;;;;;;;37.75;21.57;;;;;;;2.82;84.71;101759.66;1719427;83;22187;-72
2020/12/19 08:35:44;;;;;;;36.05;21.05;;;;;;;2.86;84.70;101758.30;1722905;83;21600;-71
2020/12/19 08:38:24;;;;;;;32.63;18.98;;;;;;;2.91;84.58;101750.69;1761888;78;21579;-72
2020/12/19 08:41:00;;;;;;;36.73;20.70;;;;;;;3.00;84.51;101755.42;1782739;80;21183;-71
2020/12/19 08:43:34;;;;;;;34.80;19.42;;;;;;;3.01;84.37;101749.95;1766196;80;21666;-72
2020/12/19 08:46:09;;;;;;;36.38;21.15;;;;;;;3.03;84.26;101750.61;1725458;82;21391;-72
2020/12/19 08:48:37;;;;;;;36.10;22.10;;;;;;;3.05;84.23;101748.59;1734814;82;21256;-72
2020/12/19 08:51:14;;;;;;;35.83;20.23;;;;;;;3.09;84.09;101746.91;1736216;81;21188;-71
2020/12/19 08:53:41;;;;;;;31.17;18.70;;;;;;;3.12;83.94;101753.16;1700642;83;21231;-73
2020/12/19 08:56:16;;;;;;;36.83;20.85;;;;;;;3.09;83.76;101751.69;1781066;80;21103;-71
2020/12/19 08:58:52;;;;;;;31.07;18.50;;;;;;;3.03;83.71;101747.97;1778819;80;21365;-72
2020/12/19 09:01:20;;;;;;;35.78;20.30;;;;;;;3.01;83.72;101739.39;1774249;80;21148;-71
2020/12/19 09:03:47;;;;;;;38.42;21.57;;;;;;;3.02;83.69;101743.66;1787287;80;21112;-72
2020/12/19 09:06:16;;;;;;;37.08;21.25;;;;;;;3.04;83.62;101737.72;1786453;80;21626;-71
2020/12/19 09:08:45;;;;;;;37.48;21.25;;;;;;;2.99;83.50;101736.09;1770870;80;21164;-70
2020/12/19 09:11:26;;;;;;;36.00;20.25;;;;;;;2.94;83.55;101738.97;1787339;80;21358;-71
2020/12/19 09:14:06;;;;;;;38.33;21.80;;;;;;;2.92;83.57;101736.48;1785640;78;21191;-71
2020/12/19 09:16:34;;;;;;;32.80;19.60;;;;;;;2.90;83.51;101737.69;1783981;80;21163;-71
2020/12/19 09:19:15;;;;;;;38.23;22.52;;;;;;;2.90;83.62;101727.14;1775212;80;21164;-72
2020/12/19 09:21:57;;;;;;;35.90;20.80;;;;;;;2.89;83.62;101728.92;1772268;78;21139;-71
2020/12/19 09:24:25;;;;;;;40.17;21.95;;;;;;;2.87;83.66;101732.27;1786123;80;21387;-71
2020/12/19 09:26:53;;;;;;;35.90;20.72;;;;;;;2.87;83.69;101726.98;1779042;80;21695;-71
2020/12/19 09:29:20;;;;;;;39.18;22.17;;;;;;;2.89;83.72;101726.28;1783478;78;21588;-71
2020/12/19 09:31:48;;;;;;;35.38;20.30;;;;;;;2.91;83.74;101732.72;1778777;80;21638;-72
2020/12/19 09:34:16;;;;;;;36.48;20.37;;;;;;;2.94;83.76;101734.51;1788599;80;21139;-72
2020/12/19 09:36:44;;;;;;;30.55;18.07;;;;;;;2.92;83.70;101735.67;1749732;80;21737;-71
2020/12/19 09:39:14;;;;;;;32.65;19.20;;;;;;;2.95;83.73;101729.54;1728065;81;21194;-70
2020/12/19 09:41:42;;;;;;;32.20;18.37;;;;;;;2.98;83.68;101727.87;1741118;80;21166;-71
2020/12/19 09:44:10;;;;;;;32.20;18.17;;;;;;;3.02;83.67;101727.02;1746422;81;21162;-71
2020/12/19 09:46:38;;;;;;;32.33;17.85;;;;;;;2.98;83.56;101719.13;1741174;81;21166;-70
2020/12/19 09:49:06;;;;;;;30.68;17.23;;;;;;;2.97;83.61;101724.92;1714858;83;22825;-71
2020/12/19 09:51:34;;;;;;;32.45;18.17;;;;;;;2.94;83.49;101721.31;1786743;80;21151;-73
2020/12/19 09:54:02;;;;;;;33.05;18.30;;;;;;;2.95;83.60;101720.30;1784821;80;21410;-71
2020/12/19 09:56:38;;;;;;;31.95;18.32;;;;;;;2.96;83.55;101725.92;1784093;80;21623;-71
2020/12/19 09:59:06;;;;;;;31.45;17.17;;;;;;;2.98;83.58;101721.77;1768443;80;21216;-72
2020/12/19 10:01:34;;;;;;;29.85;17.27;;;;;;;2.99;83.55;101722.90;1775988;80;22385;-72
2020/12/19 10:04:02;;;;;;;31.77;19.17;;;;;;;3.02;83.52;101721.23;1776086;78;21175;-75
2020/12/19 10:06:29;;;;;;;26.97;15.08;;;;;;;3.05;83.58;101720.06;1777540;80;21188;-70
2020/12/19 10:08:58;;;;;;;25.52;15.40;;;;;;;3.06;83.44;101723.04;1768816;78;20986;-72
2020/12/19 10:11:27;;;;;;;24.50;14.70;;;;;;;3.04;83.37;101719.24;1783039;78;21140;-72
2020/12/19 10:13:55;;;;;;;26.85;16.02;;;;;;;3.04;83.39;101717.92;1784385;80;21393;-71
2020/12/19 10:16:22;;;;;;;27.42;15.18;;;;;;;3.05;83.39;101712.14;1782345;80;21188;-71
2020/12/19 10:18:50;;;;;;;22.25;13.50;;;;;;;3.11;83.39;101715.89;1782322;80;21535;-72
2020/12/19 10:21:18;;;;;;;22.77;14.33;;;;;;;3.14;83.35;101714.22;1766256;80;21186;-73
2020/12/19 10:23:46;;;;;;;22.87;13.80;;;;;;;3.16;83.27;101717.48;1780282;80;21168;-72
2020/12/19 10:26:13;;;;;;;24.87;14.73;;;;;;;3.18;83.17;101716.81;1781230;80;21494;-71
2020/12/19 10:28:41;;;;;;;21.87;13.55;;;;;;;3.23;83.16;101718.42;1784348;80;21203;-71
2020/12/19 10:31:09;;;;;;;19.87;12.00;;;;;;;3.27;83.10;101710.45;1719545;82;21215;-72
2020/12/19 10:33:36;;;;;;;19.98;12.13;;;;;;;3.32;82.96;101712.04;1714852;83;21214;-72
2020/12/19 10:36:04;;;;;;;19.65;12.60;;;;;;;3.38;82.75;101712.64;1724511;83;21180;-73
2020/12/19 10:38:32;;;;;;;21.52;12.70;;;;;;;3.39;82.69;101712.14;1713150;83;21196;-72
2020/12/19 10:40:59;;;;;;;19.32;12.40;;;;;;;3.43;82.68;101721.36;1788506;80;21135;-72
2020/12/19 10:43:27;;;;;;;21.73;12.88;;;;;;;3.50;82.48;101715.16;1756395;78;21119;-72
2020/12/19 10:45:55;;;;;;;18.65;11.55;;;;;;;3.54;82.26;101715.62;1782948;80;21718;-72
2020/12/19 10:48:23;;;;;;;20.27;11.68;;;;;;;3.56;82.15;101712.30;1778799;80;21156;-71
2020/12/19 10:50:50;;;;;;;22.73;14.10;;;;;;;3.59;82.03;101712.45;1777962;80;21379;-72
2020/12/19 10:53:18;;;;;;;26.12;16.00;;;;;;;3.60;81.87;101714.89;1772072;80;21167;-72
2020/12/19 10:55:46;;;;;;;24.82;15.68;;;;;;;3.62;81.83;101708.94;1784596;80;21172;-71
2020/12/19 10:58:14;;;;;;;25.17;15.18;;;;;;;3.63;81.59;101711.08;1782628;80;21617;-72
2020/12/19 11:00:42;;;;;;;20.43;13.08;;;;;;;3.58;81.50;101706.32;1780348;80;21615;-72
2020/12/19 11:03:09;;;;;;;21.17;12.93;;;;;;;3.57;81.58;101707.84;1773947;80;21262;-72
2020/12/19 11:05:41;;;;;;;20.55;13.30;;;;;;;3.52;81.56;101709.21;1769284;80;21658;-71
2020/12/19 11:08:10;;;;;;;24.20;16.62;;;;;;;3.49;81.63;101704.29;1741413;80;21235;-71
2020/12/19 11:10:38;;;;;;;22.17;14.30;;;;;;;3.50;81.68;101704.59;1726214;81;21208;-71
2020/12/19 11:13:05;;;;;;;25.68;15.53;;;;;;;3.57;81.75;101703.37;1761449;80;21111;-72
2020/12/19 11:15:33;;;;;;;22.37;14.87;;;;;;;3.61;81.71;101703.83;1782401;80;21627;-72
2020/12/19 11:18:01;;;;;;;20.40;13.38;;;;;;;3.64;81.71;101705.59;1764411;80;21179;-71
2020/12/19 11:20:29;;;;;;;20.55;14.35;;;;;;;3.64;81.60;101708.23;1781678;78;21124;-72
2020/12/19 11:22:57;;;;;;;21.33;13.53;;;;;;;3.64;81.56;101708.74;1779677;80;21139;-72
2020/12/19 11:25:25;;;;;;;23.12;14.30;;;;;;;3.61;81.51;101706.47;1771307;80;21164;-72
2020/12/19 11:27:53;;;;;;;28.20;17.25;;;;;;;3.52;81.53;101708.36;1784060;80;21617;-72
2020/12/19 11:30:21;;;;;;;24.57;16.23;;;;;;;3.48;81.60;101713.19;1774126;80;21562;-72